sensor_id;sensor_type;location;lat;lon;timestamp;pressure;altitude;pressure_sealevel;temperature;humidity
4012;BME280;2020;48.682;9.024;2023-01-28T00:01:14;96919.91;;;-2.28;95.92
4012;BME280;2020;48.682;9.024;2023-01-28T00:03:40;96923.28;;;-2.28;95.33
4012;BME280;2020;48.682;9.024;2023-01-28T00:06:11;96923.47;;;-2.32;95.19
4012;BME280;2020;48.682;9.024;2023-01-28T00:08:38;96921.69;;;-2.30;95.91
4012;BME280;2020;48.682;9.024;2023-01-28T00:11:05;96919.91;;;-2.28;96.48
4012;BME280;2020;48.682;9.024;2023-01-28T00:13:32;96920.78;;;-2.29;95.57
4012;BME280;2020;48.682;9.024;2023-01-28T00:16:02;96914.00;;;-2.29;95.47
4012;BME280;2020;48.682;9.024;2023-01-28T00:18:29;96915.78;;;-2.31;95.18
4012;BME280;2020;48.682;9.024;2023-01-28T00:21:00;96918.38;;;-2.32;95.66
4012;BME280;2020;48.682;9.024;2023-01-28T00:23:30;96916.94;;;-2.38;94.93
4012;BME280;2020;48.682;9.024;2023-01-28T00:26:00;96913.53;;;-2.39;95.36
4012;BME280;2020;48.682;9.024;2023-01-28T00:28:26;96909.19;;;-2.37;95.62
4012;BME280;2020;48.682;9.024;2023-01-28T00:30:52;96916.72;;;-2.33;95.45
4012;BME280;2020;48.682;9.024;2023-01-28T00:33:17;96915.06;;;-2.35;94.97
4012;BME280;2020;48.682;9.024;2023-01-28T00:35:43;96923.59;;;-2.36;94.72
4012;BME280;2020;48.682;9.024;2023-01-28T00:38:08;96911.63;;;-2.33;95.50
4012;BME280;2020;48.682;9.024;2023-01-28T00:40:34;96915.94;;;-2.36;95.76
4012;BME280;2020;48.682;9.024;2023-01-28T00:43:00;96915.81;;;-2.32;95.66
4012;BME280;2020;48.682;9.024;2023-01-28T00:45:25;96913.16;;;-2.29;96.28
4012;BME280;2020;48.682;9.024;2023-01-28T00:47:50;96908.03;;;-2.29;96.12
4012;BME280;2020;48.682;9.024;2023-01-28T00:50:16;96909.56;;;-2.25;96.33
4012;BME280;2020;48.682;9.024;2023-01-28T00:52:41;96910.47;;;-2.26;95.44
4012;BME280;2020;48.682;9.024;2023-01-28T00:55:07;96903.06;;;-2.32;95.26
4012;BME280;2020;48.682;9.024;2023-01-28T00:57:32;96913.28;;;-2.32;95.20
4012;BME280;2020;48.682;9.024;2023-01-28T00:59:58;96908.19;;;-2.32;95.68
4012;BME280;2020;48.682;9.024;2023-01-28T01:02:24;96906.38;;;-2.30;95.60
4012;BME280;2020;48.682;9.024;2023-01-28T01:04:49;96908.03;;;-2.29;95.88
4012;BME280;2020;48.682;9.024;2023-01-28T01:07:25;96916.47;;;-2.27;96.03
4012;BME280;2020;48.682;9.024;2023-01-28T01:10:00;96913.91;;;-2.27;95.62
4012;BME280;2020;48.682;9.024;2023-01-28T01:12:25;96908.75;;;-2.26;95.07
4012;BME280;2020;48.682;9.024;2023-01-28T01:14:51;96904.47;;;-2.25;95.73
4012;BME280;2020;48.682;9.024;2023-01-28T01:17:16;96905.38;;;-2.26;95.06
4012;BME280;2020;48.682;9.024;2023-01-28T01:19:41;96908.03;;;-2.29;95.12
4012;BME280;2020;48.682;9.024;2023-01-28T01:22:07;96913.91;;;-2.27;95.87
4012;BME280;2020;48.682;9.024;2023-01-28T01:24:32;96911.34;;;-2.27;95.99
4012;BME280;2020;48.682;9.024;2023-01-28T01:26:58;96918.25;;;-2.29;95.65
4012;BME280;2020;48.682;9.024;2023-01-28T01:29:23;96926.66;;;-2.27;96.37
4012;BME280;2020;48.682;9.024;2023-01-28T01:31:49;96914.94;;;-2.31;95.88
4012;BME280;2020;48.682;9.024;2023-01-28T01:34:14;96930.22;;;-2.31;95.10
4012;BME280;2020;48.682;9.024;2023-01-28T01:36:39;96925.13;;;-2.31;96.05
4012;BME280;2020;48.682;9.024;2023-01-28T01:39:11;96921.69;;;-2.30;96.47
4012;BME280;2020;48.682;9.024;2023-01-28T01:41:36;96921.69;;;-2.30;95.45
4012;BME280;2020;48.682;9.024;2023-01-28T01:44:04;96928.56;;;-2.32;95.88
4012;BME280;2020;48.682;9.024;2023-01-28T01:46:46;96928.56;;;-2.32;96.26
4012;BME280;2020;48.682;9.024;2023-01-28T01:49:22;96926.78;;;-2.30;96.13
4012;BME280;2020;48.682;9.024;2023-01-28T01:51:52;96926.78;;;-2.30;96.24
4012;BME280;2020;48.682;9.024;2023-01-28T01:54:20;96915.81;;;-2.32;96.00
4012;BME280;2020;48.682;9.024;2023-01-28T01:56:49;96931.06;;;-2.31;96.31
4012;BME280;2020;48.682;9.024;2023-01-28T01:59:22;96934.38;;;-2.29;96.47
4012;BME280;2020;48.682;9.024;2023-01-28T02:01:48;96937.13;;;-2.33;96.47
4012;BME280;2020;48.682;9.024;2023-01-28T02:04:24;96926.78;;;-2.30;97.01
4012;BME280;2020;48.682;9.024;2023-01-28T02:06:50;96933.53;;;-2.29;97.34
4012;BME280;2020;48.682;9.024;2023-01-28T02:09:45;96930.09;;;-2.28;97.52
4012;BME280;2020;48.682;9.024;2023-01-28T02:12:15;96923.97;;;-2.24;98.59
4012;BME280;2020;48.682;9.024;2023-01-28T02:14:46;96926.41;;;-2.21;97.88
4012;BME280;2020;48.682;9.024;2023-01-28T02:17:14;96920.78;;;-2.29;97.39
4012;BME280;2020;48.682;9.024;2023-01-28T02:19:46;96929.34;;;-2.30;97.34
4012;BME280;2020;48.682;9.024;2023-01-28T02:25:12;96927.16;;;-2.40;97.80
4012;BME280;2020;48.682;9.024;2023-01-28T02:30:38;96930.34;;;-2.35;98.65
4012;BME280;2020;48.682;9.024;2023-01-28T02:33:08;96936.22;;;-2.32;98.61
4012;BME280;2020;48.682;9.024;2023-01-28T02:35:47;96937.00;;;-2.30;99.17
4012;BME280;2020;48.682;9.024;2023-01-28T02:38:30;96933.28;;;-2.23;99.32
4012;BME280;2020;48.682;9.024;2023-01-28T02:41:03;96934.94;;;-2.22;98.96
4012;BME280;2020;48.682;9.024;2023-01-28T02:43:42;96922.13;;;-2.21;98.11
4012;BME280;2020;48.682;9.024;2023-01-28T02:49:15;96935.78;;;-2.22;98.18
4012;BME280;2020;48.682;9.024;2023-01-28T02:57:16;96947.78;;;-2.24;98.50
4012;BME280;2020;48.682;9.024;2023-01-28T02:59:47;96936.59;;;-2.21;97.81
4012;BME280;2020;48.682;9.024;2023-01-28T03:04:57;96943.09;;;-2.14;97.71
4012;BME280;2020;48.682;9.024;2023-01-28T03:07:26;96944.75;;;-2.13;97.75
4012;BME280;2020;48.682;9.024;2023-01-28T03:09:55;96951.50;;;-2.12;97.68
4012;BME280;2020;48.682;9.024;2023-01-28T03:12:25;96947.31;;;-2.13;96.94
4012;BME280;2020;48.682;9.024;2023-01-28T03:15:13;96941.44;;;-2.15;97.58
4012;BME280;2020;48.682;9.024;2023-01-28T03:21:05;96944.88;;;-2.16;97.67
4012;BME280;2020;48.682;9.024;2023-01-28T03:27:18;96950.88;;;-2.17;98.64
4012;BME280;2020;48.682;9.024;2023-01-28T03:30:10;96944.06;;;-2.16;98.63
4012;BME280;2020;48.682;9.024;2023-01-28T03:32:57;96945.78;;;-2.17;99.00
4012;BME280;2020;48.682;9.024;2023-01-28T03:35:41;96946.69;;;-2.18;99.12
4012;BME280;2020;48.682;9.024;2023-01-28T03:38:25;96947.44;;;-2.16;100.00
4012;BME280;2020;48.682;9.024;2023-01-28T03:41:06;96948.59;;;-2.23;100.00
4012;BME280;2020;48.682;9.024;2023-01-28T03:43:31;96953.69;;;-2.23;100.00
4012;BME280;2020;48.682;9.024;2023-01-28T03:45:57;96958.38;;;-2.33;100.00
4012;BME280;2020;48.682;9.024;2023-01-28T03:48:25;96965.81;;;-2.28;100.00
4012;BME280;2020;48.682;9.024;2023-01-28T03:50:52;96961.59;;;-2.29;100.00
4012;BME280;2020;48.682;9.024;2023-01-28T03:53:18;96960.84;;;-2.31;100.00
4012;BME280;2020;48.682;9.024;2023-01-28T03:55:45;96967.47;;;-2.27;100.00
4012;BME280;2020;48.682;9.024;2023-01-28T03:58:11;96970.22;;;-2.32;100.00
4012;BME280;2020;48.682;9.024;2023-01-28T04:00:37;96973.47;;;-2.28;100.00
4012;BME280;2020;48.682;9.024;2023-01-28T04:03:15;96967.72;;;-2.33;100.00
4012;BME280;2020;48.682;9.024;2023-01-28T04:05:46;96963.25;;;-2.28;100.00
4012;BME280;2020;48.682;9.024;2023-01-28T04:08:21;96957.13;;;-2.24;100.00
4012;BME280;2020;48.682;9.024;2023-01-28T04:10:46;96950.25;;;-2.22;100.00
4012;BME280;2020;48.682;9.024;2023-01-28T04:13:11;96963.75;;;-2.20;100.00
4012;BME280;2020;48.682;9.024;2023-01-28T04:15:36;96958.66;;;-2.20;100.00
4012;BME280;2020;48.682;9.024;2023-01-28T04:18:02;96968.22;;;-2.25;100.00
4012;BME280;2020;48.682;9.024;2023-01-28T04:20:27;96969.00;;;-2.23;100.00
4012;BME280;2020;48.682;9.024;2023-01-28T04:22:52;96967.47;;;-2.27;100.00
4012;BME280;2020;48.682;9.024;2023-01-28T04:25:18;96973.41;;;-2.27;100.00
4012;BME280;2020;48.682;9.024;2023-01-28T04:27:43;96980.03;;;-2.23;100.00
4012;BME280;2020;48.682;9.024;2023-01-28T04:30:09;96981.75;;;-2.23;100.00
4012;BME280;2020;48.682;9.024;2023-01-28T04:32:34;96985.06;;;-2.21;100.00
4012;BME280;2020;48.682;9.024;2023-01-28T04:34:59;96990.94;;;-2.19;100.00
4012;BME280;2020;48.682;9.024;2023-01-28T04:37:25;96984.03;;;-2.17;100.00
4012;BME280;2020;48.682;9.024;2023-01-28T04:39:50;96979.56;;;-2.12;100.00
4012;BME280;2020;48.682;9.024;2023-01-28T04:42:15;96987.22;;;-2.12;100.00
4012;BME280;2020;48.682;9.024;2023-01-28T04:44:40;96983.91;;;-2.14;100.00
4012;BME280;2020;48.682;9.024;2023-01-28T04:47:06;96995.78;;;-2.13;100.00
4012;BME280;2020;48.682;9.024;2023-01-28T04:49:31;96994.00;;;-2.11;100.00
4012;BME280;2020;48.682;9.024;2023-01-28T04:51:56;96997.44;;;-2.12;100.00
4012;BME280;2020;48.682;9.024;2023-01-28T04:54:22;96997.56;;;-2.15;100.00
4012;BME280;2020;48.682;9.024;2023-01-28T04:56:47;96996.75;;;-2.15;100.00
4012;BME280;2020;48.682;9.024;2023-01-28T04:59:12;97000.38;;;-2.21;100.00
4012;BME280;2020;48.682;9.024;2023-01-28T05:01:38;97002.66;;;-2.15;100.00
4012;BME280;2020;48.682;9.024;2023-01-28T05:04:03;96999.47;;;-2.20;100.00
4012;BME280;2020;48.682;9.024;2023-01-28T05:06:30;97000.31;;;-2.19;100.00
4012;BME280;2020;48.682;9.024;2023-01-28T05:08:56;97005.59;;;-2.24;100.00
4012;BME280;2020;48.682;9.024;2023-01-28T05:11:22;97006.47;;;-2.25;100.00
4012;BME280;2020;48.682;9.024;2023-01-28T05:13:48;97001.38;;;-2.25;100.00
4012;BME280;2020;48.682;9.024;2023-01-28T05:16:13;97009.53;;;-2.17;100.00
4012;BME280;2020;48.682;9.024;2023-01-28T05:18:38;97012.75;;;-2.12;100.00
4012;BME280;2020;48.682;9.024;2023-01-28T05:21:04;97006.69;;;-2.09;100.00
4012;BME280;2020;48.682;9.024;2023-01-28T05:23:29;97012.88;;;-2.15;100.00
4012;BME280;2020;48.682;9.024;2023-01-28T05:25:54;97004.44;;;-2.17;100.00
4012;BME280;2020;48.682;9.024;2023-01-28T05:28:19;97008.13;;;-2.24;100.00
4012;BME280;2020;48.682;9.024;2023-01-28T05:30:45;97007.97;;;-2.19;100.00
4012;BME280;2020;48.682;9.024;2023-01-28T05:33:10;97011.72;;;-2.28;100.00
4012;BME280;2020;48.682;9.024;2023-01-28T05:35:35;97013.25;;;-2.24;100.00
4012;BME280;2020;48.682;9.024;2023-01-28T05:38:01;97002.78;;;-2.18;100.00
4012;BME280;2020;48.682;9.024;2023-01-28T05:40:27;97014.53;;;-2.14;100.00
4012;BME280;2020;48.682;9.024;2023-01-28T05:42:52;97007.63;;;-2.12;100.00
4012;BME280;2020;48.682;9.024;2023-01-28T05:45:17;97017.84;;;-2.12;100.00
4012;BME280;2020;48.682;9.024;2023-01-28T05:47:42;97007.50;;;-2.09;100.00
4012;BME280;2020;48.682;9.024;2023-01-28T05:50:08;97015.94;;;-2.07;100.00
4012;BME280;2020;48.682;9.024;2023-01-28T05:52:34;97013.38;;;-2.07;100.00
4012;BME280;2020;48.682;9.024;2023-01-28T05:54:59;97011.78;;;-2.09;100.00
4012;BME280;2020;48.682;9.024;2023-01-28T05:57:25;97017.59;;;-2.06;100.00
4012;BME280;2020;48.682;9.024;2023-01-28T05:59:50;97010.56;;;-2.00;100.00
4012;BME280;2020;48.682;9.024;2023-01-28T06:02:16;97013.13;;;-2.00;100.00
4012;BME280;2020;48.682;9.024;2023-01-28T06:04:41;97014.72;;;-1.98;100.00
4012;BME280;2020;48.682;9.024;2023-01-28T06:07:06;97016.66;;;-2.03;100.00
4012;BME280;2020;48.682;9.024;2023-01-28T06:09:31;97017.47;;;-2.02;100.00
4012;BME280;2020;48.682;9.024;2023-01-28T06:11:57;97026.59;;;-1.97;100.00
4012;BME280;2020;48.682;9.024;2023-01-28T06:14:22;97032.63;;;-1.99;100.00
4012;BME280;2020;48.682;9.024;2023-01-28T06:16:47;97027.53;;;-1.99;100.00
4012;BME280;2020;48.682;9.024;2023-01-28T06:19:12;97040.28;;;-1.99;100.00
4012;BME280;2020;48.682;9.024;2023-01-28T06:21:38;97041.00;;;-1.96;100.00
4012;BME280;2020;48.682;9.024;2023-01-28T06:24:03;97045.28;;;-1.96;100.00
4012;BME280;2020;48.682;9.024;2023-01-28T06:26:28;97048.66;;;-1.96;100.00
4012;BME280;2020;48.682;9.024;2023-01-28T06:28:54;97053.75;;;-1.96;100.00
4012;BME280;2020;48.682;9.024;2023-01-28T06:31:20;97060.66;;;-1.98;100.00
4012;BME280;2020;48.682;9.024;2023-01-28T06:33:45;97066.47;;;-1.94;100.00
4012;BME280;2020;48.682;9.024;2023-01-28T06:36:10;97063.16;;;-1.96;100.00
4012;BME280;2020;48.682;9.024;2023-01-28T06:38:36;97064.81;;;-1.95;100.00
4012;BME280;2020;48.682;9.024;2023-01-28T06:41:01;97066.59;;;-1.97;100.00
4012;BME280;2020;48.682;9.024;2023-01-28T06:43:27;97068.25;;;-1.96;100.00
4012;BME280;2020;48.682;9.024;2023-01-28T06:45:59;97074.13;;;-1.94;100.00
4012;BME280;2020;48.682;9.024;2023-01-28T06:48:25;97070.69;;;-1.93;100.00
4012;BME280;2020;48.682;9.024;2023-01-28T06:50:51;97077.44;;;-1.92;100.00
4012;BME280;2020;48.682;9.024;2023-01-28T06:53:17;97080.00;;;-1.92;100.00
4012;BME280;2020;48.682;9.024;2023-01-28T06:55:42;97087.66;;;-1.92;100.00
4012;BME280;2020;48.682;9.024;2023-01-28T06:58:08;97090.34;;;-1.95;100.00
4012;BME280;2020;48.682;9.024;2023-01-28T07:00:33;97085.22;;;-1.95;100.00
4012;BME280;2020;48.682;9.024;2023-01-28T07:02:59;97084.25;;;-1.93;100.00
4012;BME280;2020;48.682;9.024;2023-01-28T07:05:24;97085.09;;;-1.92;100.00
4012;BME280;2020;48.682;9.024;2023-01-28T07:07:50;97086.88;;;-1.94;100.00
4012;BME280;2020;48.682;9.024;2023-01-28T07:10:16;97088.66;;;-1.96;100.00
4012;BME280;2020;48.682;9.024;2023-01-28T07:12:41;97088.53;;;-1.93;100.00
4012;BME280;2020;48.682;9.024;2023-01-28T07:15:07;97091.28;;;-1.98;100.00
4012;BME280;2020;48.682;9.024;2023-01-28T07:17:32;97092.13;;;-1.97;100.00
4012;BME280;2020;48.682;9.024;2023-01-28T07:19:58;97097.22;;;-1.97;100.00
4012;BME280;2020;48.682;9.024;2023-01-28T07:22:23;97090.50;;;-2.00;100.00
4012;BME280;2020;48.682;9.024;2023-01-28T07:24:48;97098.88;;;-1.96;100.00
4012;BME280;2020;48.682;9.024;2023-01-28T07:27:13;97093.66;;;-1.93;100.00
4012;BME280;2020;48.682;9.024;2023-01-28T07:29:39;97104.50;;;-1.88;100.00
4012;BME280;2020;48.682;9.024;2023-01-28T07:32:04;97100.28;;;-1.89;100.00
4012;BME280;2020;48.682;9.024;2023-01-28T07:34:31;97103.59;;;-1.87;100.00
4012;BME280;2020;48.682;9.024;2023-01-28T07:36:56;97096.84;;;-1.88;100.00
4012;BME280;2020;48.682;9.024;2023-01-28T07:39:22;97096.84;;;-1.88;100.00
4012;BME280;2020;48.682;9.024;2023-01-28T07:41:47;97098.50;;;-1.87;100.00
4012;BME280;2020;48.682;9.024;2023-01-28T07:44:12;97110.38;;;-1.86;100.00
4012;BME280;2020;48.682;9.024;2023-01-28T07:46:37;97108.59;;;-1.84;100.00
4012;BME280;2020;48.682;9.024;2023-01-28T07:49:03;97107.06;;;-1.88;100.00
4012;BME280;2020;48.682;9.024;2023-01-28T07:51:28;97107.81;;;-1.86;100.00
4012;BME280;2020;48.682;9.024;2023-01-28T07:53:53;97107.56;;;-1.80;100.00
4012;BME280;2020;48.682;9.024;2023-01-28T07:56:19;97110.25;;;-1.83;100.00
4012;BME280;2020;48.682;9.024;2023-01-28T07:58:44;97116.88;;;-1.79;100.00
4012;BME280;2020;48.682;9.024;2023-01-28T08:01:09;97121.72;;;-1.72;100.00
4012;BME280;2020;48.682;9.024;2023-01-28T08:03:34;97121.91;;;-1.77;100.00
4012;BME280;2020;48.682;9.024;2023-01-28T08:06:00;97123.53;;;-1.74;100.00
4012;BME280;2020;48.682;9.024;2023-01-28T08:08:26;97132.06;;;-1.75;100.00
4012;BME280;2020;48.682;9.024;2023-01-28T08:10:52;97121.88;;;-1.75;100.00
4012;BME280;2020;48.682;9.024;2023-01-28T08:13:18;97130.97;;;-1.70;100.00
4012;BME280;2020;48.682;9.024;2023-01-28T08:15:44;97128.25;;;-1.65;100.00
4012;BME280;2020;48.682;9.024;2023-01-28T08:18:12;97129.00;;;-1.63;100.00
4012;BME280;2020;48.682;9.024;2023-01-28T08:20:38;97134.81;;;-1.59;100.00
4012;BME280;2020;48.682;9.024;2023-01-28T08:23:24;97130.56;;;-1.59;100.00
4012;BME280;2020;48.682;9.024;2023-01-28T08:25:53;97133.88;;;-1.57;100.00
4012;BME280;2020;48.682;9.024;2023-01-28T08:28:19;97139.63;;;-1.52;100.00
4012;BME280;2020;48.682;9.024;2023-01-28T08:30:45;97134.63;;;-1.55;100.00
4012;BME280;2020;48.682;9.024;2023-01-28T08:33:12;97132.84;;;-1.53;100.00
4012;BME280;2020;48.682;9.024;2023-01-28T08:35:37;97144.00;;;-1.55;100.00
4012;BME280;2020;48.682;9.024;2023-01-28T08:38:04;97143.94;;;-1.54;100.00
4012;BME280;2020;48.682;9.024;2023-01-28T08:40:30;97147.19;;;-1.50;100.00
4012;BME280;2020;48.682;9.024;2023-01-28T08:42:55;97149.06;;;-1.54;100.00
4012;BME280;2020;48.682;9.024;2023-01-28T08:45:23;97146.63;;;-1.57;100.00
4012;BME280;2020;48.682;9.024;2023-01-28T08:47:56;97145.53;;;-1.51;100.00
4012;BME280;2020;48.682;9.024;2023-01-28T08:50:23;97143.31;;;-1.59;100.00
4012;BME280;2020;48.682;9.024;2023-01-28T08:52:56;97145.75;;;-1.56;100.00
4012;BME280;2020;48.682;9.024;2023-01-28T08:55:22;97145.66;;;-1.54;100.00
4012;BME280;2020;48.682;9.024;2023-01-28T08:57:48;97144.84;;;-1.55;99.98
4012;BME280;2020;48.682;9.024;2023-01-28T09:00:14;97149.81;;;-1.52;100.00
4012;BME280;2020;48.682;9.024;2023-01-28T09:02:39;97152.16;;;-1.47;100.00
4012;BME280;2020;48.682;9.024;2023-01-28T09:05:05;97149.44;;;-1.42;99.89
4012;BME280;2020;48.682;9.024;2023-01-28T09:07:30;97156.34;;;-1.44;99.65
4012;BME280;2020;48.682;9.024;2023-01-28T09:09:56;97154.41;;;-1.39;99.66
4012;BME280;2020;48.682;9.024;2023-01-28T09:12:21;97147.53;;;-1.37;99.44
4012;BME280;2020;48.682;9.024;2023-01-28T09:14:47;97155.69;;;-1.29;99.71
4012;BME280;2020;48.682;9.024;2023-01-28T09:17:12;97158.75;;;-1.21;99.48
4012;BME280;2020;48.682;9.024;2023-01-28T09:19:37;97156.28;;;-1.22;98.29
4012;BME280;2020;48.682;9.024;2023-01-28T09:22:03;97160.53;;;-1.23;98.71
4012;BME280;2020;48.682;9.024;2023-01-28T09:24:28;97160.53;;;-1.23;98.21
4012;BME280;2020;48.682;9.024;2023-01-28T09:26:54;97157.47;;;-1.31;97.10
4012;BME280;2020;48.682;9.024;2023-01-28T09:29:19;97161.31;;;-1.21;98.03
4012;BME280;2020;48.682;9.024;2023-01-28T09:31:44;97164.75;;;-1.22;97.73
4012;BME280;2020;48.682;9.024;2023-01-28T09:34:10;97162.06;;;-1.19;97.79
4012;BME280;2020;48.682;9.024;2023-01-28T09:36:35;97170.38;;;-1.13;97.32
4012;BME280;2020;48.682;9.024;2023-01-28T09:39:01;97179.38;;;-1.05;97.27
4012;BME280;2020;48.682;9.024;2023-01-28T09:41:29;97180.06;;;-1.01;96.76
4012;BME280;2020;48.682;9.024;2023-01-28T09:46:31;97181.09;;;-1.05;95.63
4012;BME280;2020;48.682;9.024;2023-01-28T09:48:56;97181.31;;;-1.10;95.48
4012;BME280;2020;48.682;9.024;2023-01-28T09:51:31;97184.50;;;-1.05;96.78
4012;BME280;2020;48.682;9.024;2023-01-28T09:54:01;97186.00;;;-1.00;97.22
4012;BME280;2020;48.682;9.024;2023-01-28T09:56:31;97191.81;;;-0.97;96.09
4012;BME280;2020;48.682;9.024;2023-01-28T09:59:11;97193.88;;;-1.05;95.69
4012;BME280;2020;48.682;9.024;2023-01-28T10:01:46;97190.09;;;-0.96;96.03
4012;BME280;2020;48.682;9.024;2023-01-28T10:15:07;97179.88;;;-0.96;93.38
4012;BME280;2020;48.682;9.024;2023-01-28T10:17:47;97182.56;;;-0.99;93.21
4012;BME280;2020;48.682;9.024;2023-01-28T10:20:19;97191.81;;;-0.97;93.18
4012;BME280;2020;48.682;9.024;2023-01-28T10:22:55;97185.03;;;-0.98;94.87
4012;BME280;2020;48.682;9.024;2023-01-28T10:25:27;97183.25;;;-0.96;95.50
4012;BME280;2020;48.682;9.024;2023-01-28T10:27:54;97177.25;;;-0.95;94.99
4012;BME280;2020;48.682;9.024;2023-01-28T10:30:20;97179.66;;;-0.92;94.54
4012;BME280;2020;48.682;9.024;2023-01-28T10:32:58;97183.38;;;-0.99;94.53
4012;BME280;2020;48.682;9.024;2023-01-28T10:35:25;97177.50;;;-1.01;93.85
4012;BME280;2020;48.682;9.024;2023-01-28T10:37:58;97177.50;;;-1.01;94.39
4012;BME280;2020;48.682;9.024;2023-01-28T10:40:25;97169.97;;;-1.04;94.31
4012;BME280;2020;48.682;9.024;2023-01-28T10:42:50;97171.50;;;-1.00;94.70
4012;BME280;2020;48.682;9.024;2023-01-28T10:45:25;97178.91;;;-0.94;94.08
4012;BME280;2020;48.682;9.024;2023-01-28T10:48:06;97175.94;;;-1.04;93.61
4012;BME280;2020;48.682;9.024;2023-01-28T10:50:33;97180.06;;;-1.01;93.95
4012;BME280;2020;48.682;9.024;2023-01-28T10:53:02;97167.91;;;-0.96;94.68
4012;BME280;2020;48.682;9.024;2023-01-28T10:55:30;97167.03;;;-0.95;93.34
4012;BME280;2020;48.682;9.024;2023-01-28T10:57:59;97165.03;;;-0.88;93.54
4012;BME280;2020;48.682;9.024;2023-01-28T11:00:36;97165.84;;;-0.88;93.55
4012;BME280;2020;48.682;9.024;2023-01-28T11:03:01;97164.97;;;-0.86;92.47
4012;BME280;2020;48.682;9.024;2023-01-28T11:05:28;97170.00;;;-0.85;92.59
4012;BME280;2020;48.682;9.024;2023-01-28T11:08:08;97170.81;;;-0.84;93.15
4012;BME280;2020;48.682;9.024;2023-01-28T11:10:37;97169.16;;;-0.85;92.51
4012;BME280;2020;48.682;9.024;2023-01-28T11:13:11;97172.34;;;-0.80;93.30
4012;BME280;2020;48.682;9.024;2023-01-28T11:15:54;97174.41;;;-0.89;92.31
4012;BME280;2020;48.682;9.024;2023-01-28T11:18:25;97169.31;;;-0.89;92.04
4012;BME280;2020;48.682;9.024;2023-01-28T11:21:18;97169.16;;;-0.85;93.46
4012;BME280;2020;48.682;9.024;2023-01-28T11:24:06;97169.31;;;-0.89;93.72
4012;BME280;2020;48.682;9.024;2023-01-28T11:26:43;97166.69;;;-0.87;94.56
4012;BME280;2020;48.682;9.024;2023-01-28T11:29:30;97166.84;;;-0.90;93.85
4012;BME280;2020;48.682;9.024;2023-01-28T11:31:57;97166.97;;;-0.93;94.17
4012;BME280;2020;48.682;9.024;2023-01-28T11:34:28;97180.69;;;-0.96;94.96
4012;BME280;2020;48.682;9.024;2023-01-28T11:37:02;97177.19;;;-0.93;95.98
4012;BME280;2020;48.682;9.024;2023-01-28T11:39:28;97177.88;;;-0.90;95.98
4012;BME280;2020;48.682;9.024;2023-01-28T11:42:02;97181.31;;;-0.91;96.09
4012;BME280;2020;48.682;9.024;2023-01-28T11:44:35;97176.34;;;-0.94;95.02
4012;BME280;2020;48.682;9.024;2023-01-28T11:52:38;97181.72;;;-1.00;94.97
4012;BME280;2020;48.682;9.024;2023-01-28T16:34:41;97315.88;;;-1.10;97.58
4012;BME280;2020;48.682;9.024;2023-01-28T16:37:09;97319.41;;;-1.13;97.45
4012;BME280;2020;48.682;9.024;2023-01-28T16:39:34;97317.03;;;-1.18;97.62
4012;BME280;2020;48.682;9.024;2023-01-28T16:41:59;97320.66;;;-1.23;97.44
4012;BME280;2020;48.682;9.024;2023-01-28T16:44:25;97319.00;;;-1.24;98.05
4012;BME280;2020;48.682;9.024;2023-01-28T16:46:50;97320.47;;;-1.19;98.71
4012;BME280;2020;48.682;9.024;2023-01-28T16:49:15;97317.16;;;-1.21;97.90
4012;BME280;2020;48.682;9.024;2023-01-28T16:51:41;97321.25;;;-1.16;98.35
4012;BME280;2020;48.682;9.024;2023-01-28T16:54:14;97321.88;;;-1.11;97.84
4012;BME280;2020;48.682;9.024;2023-01-28T16:56:40;97321.88;;;-1.11;97.41
4012;BME280;2020;48.682;9.024;2023-01-28T16:59:09;97318.44;;;-1.10;97.57
4012;BME280;2020;48.682;9.024;2023-01-28T17:01:35;97325.34;;;-1.12;97.90
4012;BME280;2020;48.682;9.024;2023-01-28T17:04:00;97316.78;;;-1.11;97.45
4012;BME280;2020;48.682;9.024;2023-01-28T17:06:27;97316.91;;;-1.14;96.39
4012;BME280;2020;48.682;9.024;2023-01-28T17:08:53;97309.19;;;-1.35;96.25
4012;BME280;2020;48.682;9.024;2023-01-28T17:11:18;97310.50;;;-1.25;97.13
4012;BME280;2020;48.682;9.024;2023-01-28T17:13:43;97317.03;;;-1.18;97.60
4012;BME280;2020;48.682;9.024;2023-01-28T17:16:08;97324.63;;;-1.16;97.71
4012;BME280;2020;48.682;9.024;2023-01-28T17:18:34;97316.91;;;-1.14;97.22
4012;BME280;2020;48.682;9.024;2023-01-28T17:21:01;97322.84;;;-1.14;96.44
4012;BME280;2020;48.682;9.024;2023-01-28T17:23:26;97327.84;;;-1.11;96.20
4012;BME280;2020;48.682;9.024;2023-01-28T17:25:52;97315.00;;;-1.09;97.42
4012;BME280;2020;48.682;9.024;2023-01-28T17:28:17;97319.22;;;-1.08;96.66
4012;BME280;2020;48.682;9.024;2023-01-28T17:30:42;97324.16;;;-1.04;96.65
4012;BME280;2020;48.682;9.024;2023-01-28T17:33:08;97334.38;;;-1.04;95.77
4012;BME280;2020;48.682;9.024;2023-01-28T17:35:33;97331.97;;;-1.08;96.10
4012;BME280;2020;48.682;9.024;2023-01-28T17:38:02;97335.44;;;-1.09;95.59
4012;BME280;2020;48.682;9.024;2023-01-28T17:40:29;97338.88;;;-1.10;95.42
4012;BME280;2020;48.682;9.024;2023-01-28T17:42:54;97338.06;;;-1.11;95.91
4012;BME280;2020;48.682;9.024;2023-01-28T17:45:20;97340.53;;;-1.09;96.28
4012;BME280;2020;48.682;9.024;2023-01-28T17:47:46;97338.88;;;-1.10;95.58
4012;BME280;2020;48.682;9.024;2023-01-28T17:50:12;97342.19;;;-1.08;95.88
4012;BME280;2020;48.682;9.024;2023-01-28T17:52:37;97342.06;;;-1.05;95.89
4012;BME280;2020;48.682;9.024;2023-01-28T17:55:05;97336.31;;;-1.10;95.14
4012;BME280;2020;48.682;9.024;2023-01-28T17:57:30;97350.88;;;-1.12;94.86
4012;BME280;2020;48.682;9.024;2023-01-28T17:59:56;97348.41;;;-1.14;95.38
4012;BME280;2020;48.682;9.024;2023-01-28T18:02:21;97352.53;;;-1.11;95.15
4012;BME280;2020;48.682;9.024;2023-01-28T18:04:46;97347.44;;;-1.11;96.04
4012;BME280;2020;48.682;9.024;2023-01-28T18:07:11;97347.19;;;-1.05;95.46
4012;BME280;2020;48.682;9.024;2023-01-28T18:09:41;97348.84;;;-1.04;95.25
4012;BME280;2020;48.682;9.024;2023-01-28T18:12:09;97348.16;;;-1.08;94.72
4012;BME280;2020;48.682;9.024;2023-01-28T18:14:36;97349.88;;;-1.08;94.64
4012;BME280;2020;48.682;9.024;2023-01-28T18:17:01;97349.09;;;-1.10;95.12
4012;BME280;2020;48.682;9.024;2023-01-28T18:19:26;97351.78;;;-1.13;94.47
4012;BME280;2020;48.682;9.024;2023-01-28T18:21:52;97353.56;;;-1.15;95.52
4012;BME280;2020;48.682;9.024;2023-01-28T18:24:20;97351.00;;;-1.15;95.00
4012;BME280;2020;48.682;9.024;2023-01-28T18:26:45;97352.66;;;-1.14;95.18
4012;BME280;2020;48.682;9.024;2023-01-28T18:29:11;97350.88;;;-1.12;95.66
4012;BME280;2020;48.682;9.024;2023-01-28T18:31:40;97349.22;;;-1.13;95.66
4012;BME280;2020;48.682;9.024;2023-01-28T18:34:05;97356.00;;;-1.12;95.63
4012;BME280;2020;48.682;9.024;2023-01-28T18:36:31;97358.50;;;-1.11;95.70
4012;BME280;2020;48.682;9.024;2023-01-28T18:38:56;97357.78;;;-1.14;95.63
4012;BME280;2020;48.682;9.024;2023-01-28T18:41:21;97350.88;;;-1.12;95.11
4012;BME280;2020;48.682;9.024;2023-01-28T18:43:46;97353.44;;;-1.12;95.18